createdAt,value
2023-06-04T00:02:16.365Z,22.10
2023-06-04T00:04:43.434Z,22.00
2023-06-04T00:07:10.356Z,22.00
2023-06-04T00:09:37.132Z,22.00
2023-06-04T00:12:04.064Z,22.00
2023-06-04T00:14:30.997Z,22.00
2023-06-04T00:16:57.838Z,22.00
2023-06-04T00:19:24.885Z,22.00
2023-06-04T00:21:51.633Z,22.00
2023-06-04T00:24:18.502Z,22.00
2023-06-04T00:26:46.053Z,21.90
2023-06-04T00:29:12.914Z,21.90
2023-06-04T00:31:39.854Z,21.90
2023-06-04T00:34:06.969Z,21.70
2023-06-04T00:36:33.822Z,21.80
2023-06-04T00:39:00.691Z,21.90
2023-06-04T00:41:27.463Z,21.80
2023-06-04T00:43:57.488Z,21.70
2023-06-04T00:46:26.595Z,21.70
2023-06-04T00:48:54.342Z,21.60
2023-06-04T00:51:22.238Z,21.60
2023-06-04T00:53:52.317Z,21.50
2023-06-04T00:56:19.633Z,21.50
2023-06-04T00:58:47.709Z,21.50
2023-06-04T01:01:52.842Z,21.50
2023-06-04T01:04:32.777Z,21.50
2023-06-04T01:07:04.320Z,21.40
2023-06-04T01:09:32.024Z,21.20
2023-06-04T01:11:59.611Z,21.30
2023-06-04T01:14:27.078Z,21.30
2023-06-04T01:17:04.022Z,21.20
2023-06-04T01:19:52.338Z,21.30
2023-06-04T01:22:29.919Z,21.20
2023-06-04T01:25:00.437Z,21.30
2023-06-04T01:27:27.532Z,21.30
2023-06-04T01:29:57.802Z,21.20
2023-06-04T01:32:26.214Z,21.30
2023-06-04T01:34:53.096Z,21.30
2023-06-04T01:37:19.847Z,21.20
2023-06-04T01:39:46.686Z,21.20
2023-06-04T01:42:13.416Z,21.10
2023-06-04T01:44:40.150Z,21.10
2023-06-04T01:47:07.211Z,21.00
2023-06-04T01:49:33.973Z,20.90
2023-06-04T01:52:00.690Z,21.00
2023-06-04T01:54:27.685Z,20.90
2023-06-04T01:56:54.450Z,20.90
2023-06-04T01:59:22.248Z,20.70
2023-06-04T02:01:49.022Z,20.70
2023-06-04T02:04:16.107Z,20.70
2023-06-04T02:06:42.891Z,20.80
2023-06-04T02:09:09.656Z,20.70
2023-06-04T02:11:36.401Z,20.70
2023-06-04T02:14:03.098Z,20.70
2023-06-04T02:16:29.897Z,20.70
2023-06-04T02:18:56.578Z,20.70
2023-06-04T02:21:23.293Z,20.70
2023-06-04T02:23:50.287Z,20.60
2023-06-04T02:26:17.073Z,20.60
2023-06-04T02:28:43.828Z,20.50
2023-06-04T02:31:10.661Z,20.50
2023-06-04T02:33:37.373Z,20.60
2023-06-04T02:36:04.338Z,20.70
2023-06-04T02:38:31.116Z,20.80
2023-06-04T02:40:57.899Z,20.70
2023-06-04T02:43:24.709Z,20.60
2023-06-04T02:45:51.502Z,20.60
2023-06-04T02:48:18.382Z,20.60
2023-06-04T02:50:45.127Z,20.70
2023-06-04T02:53:11.913Z,20.70
2023-06-04T02:55:38.769Z,20.70
2023-06-04T02:58:05.502Z,20.80
2023-06-04T03:00:32.722Z,20.70
2023-06-04T03:03:03.090Z,20.70
2023-06-04T03:05:32.999Z,20.80
2023-06-04T03:08:02.148Z,20.80
2023-06-04T03:10:28.947Z,20.80
2023-06-04T03:12:55.872Z,20.80
2023-06-04T03:15:22.684Z,20.80
2023-06-04T03:17:49.806Z,20.70
2023-06-04T03:20:16.560Z,20.80
2023-06-04T03:22:43.533Z,20.80
2023-06-04T03:25:10.777Z,20.80
2023-06-04T03:27:37.593Z,20.80
2023-06-04T03:30:05.075Z,20.90
2023-06-04T03:32:32.037Z,21.00
2023-06-04T03:34:58.973Z,21.00
2023-06-04T03:37:27.081Z,21.00
2023-06-04T03:39:53.856Z,21.00
2023-06-04T03:42:20.653Z,21.00
2023-06-04T03:44:47.624Z,21.10
2023-06-04T03:47:14.572Z,21.10
2023-06-04T03:49:41.805Z,21.10
2023-06-04T03:52:08.606Z,21.10
2023-06-04T03:54:35.622Z,21.00
2023-06-04T03:57:03.099Z,21.10
2023-06-04T03:59:30.196Z,21.10
2023-06-04T04:01:56.970Z,21.10
2023-06-04T04:04:23.773Z,21.10
2023-06-04T04:06:50.739Z,21.00
2023-06-04T04:09:17.558Z,21.00
2023-06-04T04:11:44.299Z,21.00
2023-06-04T04:14:11.168Z,21.10
2023-06-04T04:16:37.928Z,21.10
2023-06-04T04:19:04.750Z,21.00
2023-06-04T04:21:31.768Z,21.10
2023-06-04T04:23:58.518Z,21.10
2023-06-04T04:26:28.736Z,21.00
2023-06-04T04:28:59.083Z,21.00
2023-06-04T04:31:26.528Z,21.00
2023-06-04T04:33:53.472Z,21.00
2023-06-04T04:36:22.843Z,21.00
2023-06-04T04:38:55.527Z,21.00
2023-06-04T04:41:24.007Z,21.00
2023-06-04T04:43:50.825Z,21.00
2023-06-04T04:46:17.962Z,21.00
2023-06-04T04:48:44.858Z,21.00
2023-06-04T04:51:11.596Z,20.90
2023-06-04T04:53:38.341Z,21.00
2023-06-04T04:56:07.812Z,21.00
2023-06-04T04:58:34.829Z,21.00
2023-06-04T05:01:01.572Z,20.90
2023-06-04T05:03:28.541Z,20.80
2023-06-04T05:05:55.350Z,20.70
2023-06-04T05:08:22.172Z,20.80
2023-06-04T05:10:49.901Z,20.80
2023-06-04T05:13:16.722Z,20.80
2023-06-04T05:15:43.518Z,20.80
2023-06-04T05:18:10.648Z,20.90
2023-06-04T05:20:38.768Z,20.80
2023-06-04T05:23:05.928Z,20.80
2023-06-04T05:25:32.864Z,20.80
2023-06-04T05:27:59.662Z,20.80
2023-06-04T05:30:26.969Z,20.80
2023-06-04T05:32:54.624Z,20.80
2023-06-04T05:35:21.590Z,20.70
2023-06-04T05:37:54.769Z,20.70
2023-06-04T05:40:22.447Z,20.60
2023-06-04T05:42:50.146Z,20.60
2023-06-04T05:45:17.070Z,20.40
2023-06-04T05:47:43.955Z,20.40
2023-06-04T05:50:11.344Z,20.30
2023-06-04T05:52:38.789Z,20.40
2023-06-04T05:55:09.076Z,20.40
2023-06-04T05:57:36.225Z,20.40
2023-06-04T06:00:07.193Z,20.50
2023-06-04T06:02:34.223Z,20.50
2023-06-04T06:05:01.023Z,20.50
2023-06-04T06:07:27.927Z,20.60
2023-06-04T06:09:54.727Z,20.60
2023-06-04T06:12:21.776Z,20.60
2023-06-04T06:14:49.414Z,20.60
2023-06-04T06:17:16.481Z,20.80
2023-06-04T06:19:43.149Z,21.00
2023-06-04T06:22:09.894Z,20.90
2023-06-04T06:24:37.108Z,21.00
2023-06-04T06:27:04.201Z,21.00
2023-06-04T06:29:30.962Z,21.10
2023-06-04T06:31:57.744Z,21.20
2023-06-04T06:34:24.909Z,21.20
2023-06-04T06:36:51.686Z,21.30
2023-06-04T06:39:18.501Z,21.30
2023-06-04T06:41:46.257Z,21.50
2023-06-04T06:44:13.092Z,21.80
2023-06-04T06:46:39.980Z,22.00
2023-06-04T06:49:07.198Z,22.00
2023-06-04T06:51:33.950Z,22.10
2023-06-04T06:54:01.079Z,22.10
2023-06-04T06:56:27.835Z,22.30
2023-06-04T06:58:54.571Z,22.40
2023-06-04T07:01:22.499Z,22.50
2023-06-04T07:03:49.254Z,22.50
2023-06-04T07:06:16.926Z,22.50
2023-06-04T07:08:43.687Z,22.70
2023-06-04T07:11:13.045Z,22.70
2023-06-04T07:13:40.417Z,22.80
2023-06-04T07:16:07.489Z,23.00
2023-06-04T07:18:34.363Z,23.20
2023-06-04T07:21:01.155Z,23.20
2023-06-04T07:23:28.450Z,23.30
2023-06-04T07:25:55.878Z,23.30
2023-06-04T07:28:22.806Z,23.30
2023-06-04T07:30:49.558Z,23.40
2023-06-04T07:33:16.301Z,23.40
2023-06-04T07:35:43.098Z,23.30
2023-06-04T07:38:10.109Z,23.40
2023-06-04T07:40:36.834Z,23.40
2023-06-04T07:43:03.571Z,23.60
2023-06-04T07:45:34.798Z,23.80
2023-06-04T07:48:03.064Z,23.70
2023-06-04T07:50:29.914Z,23.70
2023-06-04T07:52:56.738Z,23.70
2023-06-04T07:55:23.639Z,23.80
2023-06-04T07:57:50.561Z,23.90
2023-06-04T08:00:18.902Z,24.00
2023-06-04T08:02:45.958Z,24.20
2023-06-04T08:05:14.740Z,24.20
2023-06-04T08:07:42.912Z,24.10
2023-06-04T08:10:10.131Z,24.20
2023-06-04T08:12:36.994Z,24.00
2023-06-04T08:15:04.687Z,24.10
2023-06-04T08:17:31.437Z,24.00
2023-06-04T08:19:58.503Z,23.90
2023-06-04T08:22:25.543Z,23.80
2023-06-04T08:24:52.292Z,23.60
2023-06-04T08:27:19.078Z,23.50
2023-06-04T08:29:45.968Z,23.50
2023-06-04T08:32:12.679Z,23.60
2023-06-04T08:34:39.416Z,23.60
2023-06-04T08:37:07.138Z,23.70
2023-06-04T08:39:34.449Z,23.80
2023-06-04T08:42:04.825Z,23.80
2023-06-04T08:44:32.012Z,23.80
2023-06-04T08:47:04.696Z,23.70
2023-06-04T08:49:37.685Z,23.80
2023-06-04T08:52:05.003Z,23.60
2023-06-04T08:54:33.571Z,23.60
2023-06-04T08:57:02.204Z,23.60
2023-06-04T08:59:29.410Z,23.50
2023-06-04T09:01:56.909Z,23.50
2023-06-04T09:04:24.364Z,23.50
2023-06-04T09:06:51.492Z,23.50
2023-06-04T09:09:19.962Z,23.40
2023-06-04T09:11:56.773Z,23.30
2023-06-04T09:14:24.096Z,23.40
2023-06-04T09:16:56.669Z,23.30
2023-06-04T09:19:23.613Z,23.20
2023-06-04T09:21:59.562Z,23.30
2023-06-04T09:24:39.710Z,23.40
2023-06-04T09:27:17.266Z,23.40
2023-06-04T09:29:55.384Z,23.30
2023-06-04T09:32:27.729Z,23.30
2023-06-04T09:35:12.798Z,23.20
2023-06-04T09:37:44.104Z,23.10
2023-06-04T09:40:11.393Z,22.90
2023-06-04T09:42:45.115Z,22.80
2023-06-04T09:45:12.847Z,22.70
2023-06-04T09:47:49.614Z,22.50
2023-06-04T09:50:31.197Z,22.20
2023-06-04T09:52:58.087Z,22.10
2023-06-04T09:55:24.955Z,21.90
2023-06-04T09:57:53.332Z,21.90
2023-06-04T10:00:25.218Z,21.60
2023-06-04T10:02:58.248Z,21.50
2023-06-04T10:05:26.369Z,21.40
2023-06-04T10:07:53.871Z,21.30
2023-06-04T10:10:24.275Z,21.20
2023-06-04T10:12:58.867Z,21.00
2023-06-04T10:15:25.956Z,21.00
2023-06-04T10:17:55.135Z,21.00
2023-06-04T10:20:22.671Z,20.80
2023-06-04T10:22:50.367Z,20.50
2023-06-04T10:25:18.148Z,20.20
2023-06-04T10:27:45.119Z,20.00
2023-06-04T10:30:12.294Z,19.90
2023-06-04T10:32:39.253Z,19.80
2023-06-04T10:35:09.095Z,19.70
2023-06-04T10:37:36.213Z,19.80
2023-06-04T10:40:05.977Z,19.80
2023-06-04T10:42:41.591Z,19.90
2023-06-04T10:45:11.019Z,19.90
2023-06-04T10:47:41.860Z,19.70
2023-06-04T10:50:13.736Z,19.50
2023-06-04T10:52:56.188Z,19.70
2023-06-04T10:55:23.051Z,19.90
2023-06-04T10:58:00.562Z,20.10
2023-06-04T11:00:42.003Z,20.20
2023-06-04T11:03:11.220Z,20.40
2023-06-04T11:05:43.686Z,20.50
2023-06-04T11:08:12.383Z,20.50
2023-06-04T11:10:41.156Z,20.40
2023-06-04T11:13:08.357Z,20.40
2023-06-04T11:15:45.959Z,20.70
2023-06-04T11:18:18.481Z,21.10
2023-06-04T11:20:49.529Z,21.50
2023-06-04T11:23:17.254Z,21.80
2023-06-04T11:25:45.461Z,22.30
2023-06-04T11:28:19.434Z,22.70
2023-06-04T11:30:58.879Z,23.10
2023-06-04T11:33:25.782Z,23.40
2023-06-04T11:35:52.645Z,23.50
2023-06-04T11:38:19.396Z,23.60
2023-06-04T11:40:59.157Z,23.90
2023-06-04T11:43:26.190Z,24.40
2023-06-04T11:45:52.983Z,24.80
2023-06-04T11:48:21.135Z,25.00
2023-06-04T11:50:48.031Z,25.20
2023-06-04T11:53:14.914Z,25.40
2023-06-04T11:55:42.275Z,25.50
2023-06-04T11:58:09.584Z,25.70
2023-06-04T12:00:37.193Z,26.00
2023-06-04T12:03:04.151Z,26.30
2023-06-04T12:05:33.155Z,26.50
2023-06-04T12:08:10.845Z,26.50
2023-06-04T12:10:42.463Z,26.60
2023-06-04T12:13:10.553Z,26.50
2023-06-04T12:15:37.619Z,26.70
2023-06-04T12:18:06.268Z,26.90
2023-06-04T12:20:47.406Z,27.10
2023-06-04T12:23:21.881Z,27.10
2023-06-04T12:25:52.216Z,27.20
2023-06-04T12:28:19.354Z,27.30
2023-06-04T12:30:46.318Z,27.40
2023-06-04T12:33:13.453Z,27.50
2023-06-04T12:35:40.399Z,27.80
2023-06-04T12:38:10.324Z,28.20
2023-06-04T12:40:37.340Z,28.40
2023-06-04T12:43:04.141Z,28.60
2023-06-04T12:45:31.206Z,28.80
2023-06-04T12:47:57.985Z,29.00
2023-06-04T12:50:24.781Z,29.20
2023-06-04T12:52:51.716Z,29.20
2023-06-04T12:55:18.848Z,29.40
2023-06-04T12:57:47.205Z,29.60
2023-06-04T13:00:17.651Z,29.80
2023-06-04T13:02:44.713Z,29.60
2023-06-04T13:05:11.469Z,29.20
2023-06-04T13:07:38.435Z,28.90
2023-06-04T13:10:05.447Z,28.80
2023-06-04T13:12:32.208Z,28.70
2023-06-04T13:14:58.982Z,28.60
2023-06-04T13:17:25.745Z,28.50
2023-06-04T13:19:53.608Z,28.50
2023-06-04T13:22:20.449Z,28.50
2023-06-04T13:24:47.180Z,28.20
2023-06-04T13:27:13.906Z,28.00
2023-06-04T13:29:43.758Z,27.70
2023-06-04T13:32:12.026Z,27.50
2023-06-04T13:34:39.031Z,27.30
2023-06-04T13:37:07.237Z,26.90
2023-06-04T13:39:34.110Z,26.80
2023-06-04T13:42:01.049Z,26.80
2023-06-04T13:44:30.009Z,26.90
2023-06-04T13:46:59.642Z,26.90
2023-06-04T13:49:26.627Z,27.00
2023-06-04T13:51:53.417Z,27.10
2023-06-04T13:54:20.173Z,27.20
2023-06-04T13:56:49.439Z,27.20
2023-06-04T13:59:16.216Z,27.50
2023-06-04T14:01:42.990Z,28.00
2023-06-04T14:04:10.134Z,28.30
2023-06-04T14:06:37.444Z,28.60
2023-06-04T14:09:05.162Z,28.80
2023-06-04T14:11:33.686Z,28.90
2023-06-04T14:14:00.670Z,29.30
2023-06-04T14:16:27.484Z,29.40
2023-06-04T14:18:54.454Z,29.40
2023-06-04T14:21:22.365Z,29.50
2023-06-04T14:23:50.553Z,29.80
2023-06-04T14:26:18.863Z,29.70
2023-06-04T14:28:45.962Z,29.70
2023-06-04T14:31:12.728Z,29.60
2023-06-04T14:33:39.678Z,29.20
2023-06-04T14:36:06.786Z,28.90
2023-06-04T14:38:33.677Z,28.40
2023-06-04T14:41:00.870Z,28.40
2023-06-04T14:43:27.675Z,28.20
2023-06-04T14:45:54.406Z,28.00
2023-06-04T14:48:21.263Z,27.70
2023-06-04T14:50:48.095Z,27.60
2023-06-04T14:53:14.799Z,27.50
2023-06-04T14:55:41.717Z,27.50
2023-06-04T14:58:08.543Z,27.20
2023-06-04T15:00:35.383Z,27.10
2023-06-04T15:03:03.807Z,27.10
2023-06-04T15:05:33.984Z,27.00
2023-06-04T15:08:01.037Z,27.00
2023-06-04T15:10:27.883Z,26.90
2023-06-04T15:12:55.097Z,26.70
2023-06-04T15:15:22.187Z,26.50
2023-06-04T15:17:49.972Z,26.40
2023-06-04T15:20:17.039Z,26.30
2023-06-04T15:22:43.782Z,26.30
2023-06-04T15:25:10.730Z,26.30
2023-06-04T15:27:39.863Z,26.40
2023-06-04T15:30:08.240Z,26.20
2023-06-04T15:32:35.402Z,26.10
2023-06-04T15:35:03.493Z,26.10
2023-06-04T15:37:30.271Z,26.10
2023-06-04T15:39:58.973Z,26.10
2023-06-04T15:42:25.926Z,26.10
2023-06-04T15:44:52.737Z,26.00
2023-06-04T15:47:19.520Z,25.70
2023-06-04T15:49:46.352Z,25.60
2023-06-04T15:52:13.095Z,25.60
2023-06-04T15:54:46.440Z,25.30
2023-06-04T15:57:14.359Z,24.60
2023-06-04T15:59:42.389Z,24.00
2023-06-04T16:02:09.484Z,23.70
2023-06-04T16:04:36.591Z,23.80
2023-06-04T16:07:04.159Z,23.60
2023-06-04T16:09:30.970Z,23.50
2023-06-04T16:11:57.743Z,23.50
2023-06-04T16:14:24.496Z,23.40
2023-06-04T16:16:51.691Z,23.50
2023-06-04T16:19:18.638Z,23.50
2023-06-04T16:21:45.397Z,23.70
2023-06-04T16:24:12.207Z,23.90
2023-06-04T16:26:39.057Z,24.10
2023-06-04T16:29:05.844Z,24.20
2023-06-04T16:31:32.620Z,24.20
2023-06-04T16:33:59.429Z,24.30
2023-06-04T16:36:26.768Z,24.20
2023-06-04T16:38:53.617Z,24.10
2023-06-04T16:41:21.247Z,24.00
2023-06-04T16:43:48.370Z,24.10
2023-06-04T16:46:16.647Z,24.20
2023-06-04T16:48:43.453Z,24.20
2023-06-04T16:51:10.696Z,24.20
2023-06-04T16:53:37.520Z,24.10
2023-06-04T16:56:04.395Z,24.00
2023-06-04T16:58:31.322Z,23.80
2023-06-04T17:00:58.227Z,23.50
2023-06-04T17:03:25.096Z,23.20
2023-06-04T17:05:51.894Z,23.40
2023-06-04T17:08:18.706Z,23.30
2023-06-04T17:10:45.711Z,23.10
2023-06-04T17:13:12.532Z,23.00
2023-06-04T17:15:39.319Z,22.90
2023-06-04T17:18:11.586Z,22.90
2023-06-04T17:20:39.489Z,22.80
2023-06-04T17:23:20.928Z,22.60
2023-06-04T17:25:48.001Z,22.40
2023-06-04T17:28:16.118Z,22.30
2023-06-04T17:30:43.257Z,22.10
2023-06-04T17:33:11.086Z,22.00
2023-06-04T17:35:39.529Z,22.10
2023-06-04T17:38:06.685Z,22.20
2023-06-04T17:40:33.423Z,22.40
2023-06-04T17:43:00.438Z,22.30
2023-06-04T17:45:27.287Z,22.40
2023-06-04T17:47:54.180Z,22.50
2023-06-04T17:50:21.053Z,22.40
2023-06-04T17:52:50.842Z,22.30
2023-06-04T17:55:17.811Z,22.30
2023-06-04T17:57:44.702Z,22.50
2023-06-04T18:00:12.111Z,22.50
2023-06-04T18:02:38.982Z,22.40
2023-06-04T18:05:06.281Z,22.40
2023-06-04T18:07:33.293Z,22.40
2023-06-04T18:10:00.034Z,22.50
2023-06-04T18:12:27.120Z,22.70
2023-06-04T18:14:54.150Z,22.70
2023-06-04T18:17:21.021Z,22.50
2023-06-04T18:19:49.682Z,22.50
2023-06-04T18:22:16.572Z,22.50
2023-06-04T18:24:43.402Z,22.70
2023-06-04T18:27:10.367Z,22.80
2023-06-04T18:29:37.134Z,22.80
2023-06-04T18:32:04.160Z,22.90
2023-06-04T18:34:31.106Z,23.00
2023-06-04T18:36:58.544Z,22.90
2023-06-04T18:39:26.409Z,22.90
2023-06-04T18:41:56.024Z,22.90
2023-06-04T18:44:23.592Z,22.80
2023-06-04T18:46:51.053Z,22.70
2023-06-04T18:49:22.632Z,22.50
2023-06-04T18:51:53.316Z,22.30
2023-06-04T18:54:21.200Z,22.30
2023-06-04T18:56:48.236Z,22.10
2023-06-04T18:59:17.233Z,22.10
2023-06-04T19:01:44.834Z,22.00
2023-06-04T19:04:14.013Z,22.00
2023-06-04T19:06:42.613Z,21.90
2023-06-04T19:09:10.023Z,22.00
2023-06-04T19:11:38.245Z,21.90
2023-06-04T19:14:05.809Z,21.90
2023-06-04T19:16:35.316Z,21.90
2023-06-04T19:19:08.983Z,21.80
2023-06-04T19:21:37.732Z,21.80
2023-06-04T19:24:06.036Z,21.80
2023-06-04T19:26:34.953Z,21.70
2023-06-04T19:29:02.508Z,21.80
2023-06-04T19:31:31.442Z,21.80
2023-06-04T19:34:00.831Z,21.80
2023-06-04T19:36:28.107Z,21.80
2023-06-04T19:38:56.840Z,21.80
2023-06-04T19:41:24.324Z,21.70
2023-06-04T19:43:51.650Z,21.50
2023-06-04T19:46:18.967Z,21.30
2023-06-04T19:48:46.517Z,21.10
2023-06-04T19:51:14.983Z,20.90
2023-06-04T19:53:42.114Z,20.90
2023-06-04T19:56:09.654Z,20.80
2023-06-04T19:58:37.065Z,20.80
2023-06-04T20:01:04.204Z,20.70
2023-06-04T20:03:33.460Z,20.70
2023-06-04T20:06:00.467Z,20.50
2023-06-04T20:08:27.883Z,20.50
2023-06-04T20:10:55.270Z,20.40
2023-06-04T20:13:22.357Z,20.50
2023-06-04T20:15:49.613Z,20.40
2023-06-04T20:18:17.012Z,20.30
2023-06-04T20:20:44.197Z,20.20
2023-06-04T20:23:11.155Z,20.10
2023-06-04T20:25:38.240Z,20.00
2023-06-04T20:28:05.542Z,20.10
2023-06-04T20:30:32.592Z,20.10
2023-06-04T20:32:59.783Z,20.10
2023-06-04T20:35:28.079Z,20.00
2023-06-04T20:37:55.350Z,20.10
2023-06-04T20:40:23.088Z,20.10
2023-06-04T20:42:51.880Z,20.00
2023-06-04T20:45:19.230Z,19.90
2023-06-04T20:47:46.580Z,19.80
2023-06-04T20:50:13.756Z,19.70
2023-06-04T20:52:41.097Z,19.50
2023-06-04T20:55:09.428Z,19.40
2023-06-04T20:57:37.118Z,19.20
2023-06-04T21:00:06.340Z,19.10
2023-06-04T21:02:33.776Z,18.90
2023-06-04T21:05:01.173Z,18.80
2023-06-04T21:07:28.428Z,18.70
2023-06-04T21:09:55.915Z,18.70
2023-06-04T21:12:23.025Z,18.70
2023-06-04T21:14:49.881Z,18.70
2023-06-04T21:17:16.851Z,18.80
2023-06-04T21:19:43.666Z,18.80
2023-06-04T21:22:10.475Z,18.80
2023-06-04T21:24:37.247Z,18.90
2023-06-04T21:27:04.197Z,18.80
2023-06-04T21:29:30.998Z,19.00
2023-06-04T21:31:58.088Z,19.00
2023-06-04T21:34:24.885Z,19.00
2023-06-04T21:36:51.670Z,19.00
2023-06-04T21:39:18.451Z,19.10
2023-06-04T21:41:45.385Z,19.20
2023-06-04T21:44:12.119Z,19.10
2023-06-04T21:46:39.269Z,19.10
2023-06-04T21:49:05.971Z,19.10
2023-06-04T21:51:33.174Z,19.00
2023-06-04T21:54:00.039Z,19.10
2023-06-04T21:56:27.874Z,19.20
2023-06-04T21:58:54.758Z,19.20
2023-06-04T22:01:21.658Z,19.20
2023-06-04T22:03:48.531Z,19.20
2023-06-04T22:06:15.345Z,19.20
2023-06-04T22:08:42.076Z,19.20
2023-06-04T22:11:08.981Z,19.20
2023-06-04T22:13:36.611Z,19.20
2023-06-04T22:16:03.658Z,19.20
2023-06-04T22:18:40.787Z,19.30
2023-06-04T22:21:17.538Z,19.30
2023-06-04T22:23:44.343Z,19.30
2023-06-04T22:26:18.321Z,19.40
2023-06-04T22:28:51.689Z,19.40
2023-06-04T22:31:18.492Z,19.40
2023-06-04T22:33:45.295Z,19.30
2023-06-04T22:36:12.302Z,19.30
2023-06-04T22:38:39.066Z,19.20
2023-06-04T22:41:06.030Z,19.10
2023-06-04T22:43:32.933Z,19.10
2023-06-04T22:45:59.657Z,19.20
2023-06-04T22:48:26.628Z,19.30
2023-06-04T22:50:53.444Z,19.30
2023-06-04T22:53:20.355Z,19.40
2023-06-04T22:55:47.433Z,19.30
2023-06-04T22:58:14.535Z,19.40
2023-06-04T23:00:42.562Z,19.40
2023-06-04T23:03:09.784Z,19.40
2023-06-04T23:05:36.666Z,19.50
2023-06-04T23:08:03.339Z,19.40
2023-06-04T23:10:30.001Z,19.40
2023-06-04T23:12:56.939Z,19.30
2023-06-04T23:15:24.810Z,19.40
2023-06-04T23:17:52.325Z,19.30
2023-06-04T23:20:20.021Z,19.40
2023-06-04T23:22:46.844Z,19.40
2023-06-04T23:25:13.707Z,19.30
2023-06-04T23:27:40.513Z,19.40
2023-06-04T23:30:07.808Z,19.40
2023-06-04T23:32:34.684Z,19.40
2023-06-04T23:35:01.436Z,19.20
2023-06-04T23:37:28.164Z,19.40
2023-06-04T23:39:54.997Z,19.30
2023-06-04T23:42:22.009Z,19.30
2023-06-04T23:44:48.781Z,19.40
2023-06-04T23:47:15.583Z,19.40
2023-06-04T23:49:42.350Z,19.40
2023-06-04T23:52:09.068Z,19.40
2023-06-04T23:54:35.890Z,19.30
2023-06-04T23:57:02.741Z,19.20
2023-06-04T23:59:29.474Z,19.30
